createdAt,value
2023-05-16T00:00:54.236Z,99.90
2023-05-16T00:03:21.786Z,99.90
2023-05-16T00:05:49.199Z,99.90
2023-05-16T00:08:16.665Z,99.90
2023-05-16T00:10:43.982Z,99.90
2023-05-16T00:13:11.088Z,99.90
2023-05-16T00:15:38.726Z,99.90
2023-05-16T00:18:06.353Z,99.90
2023-05-16T00:20:34.742Z,99.90
2023-05-16T00:23:01.946Z,99.90
2023-05-16T00:25:29.175Z,99.90
2023-05-16T00:27:56.709Z,99.90
2023-05-16T00:30:23.929Z,99.90
2023-05-16T00:32:52.389Z,99.90
2023-05-16T00:35:19.801Z,99.90
2023-05-16T00:37:46.951Z,99.90
2023-05-16T00:40:14.234Z,99.90
2023-05-16T00:42:43.099Z,99.90
2023-05-16T00:45:11.314Z,99.90
2023-05-16T00:47:38.572Z,99.90
2023-05-16T00:50:07.272Z,99.90
2023-05-16T00:52:36.060Z,99.90
2023-05-16T00:55:04.298Z,99.90
2023-05-16T00:57:31.561Z,99.90
2023-05-16T00:59:58.825Z,99.90
2023-05-16T01:02:28.877Z,99.90
2023-05-16T01:04:56.733Z,99.90
2023-05-16T01:07:24.120Z,99.90
2023-05-16T01:09:51.228Z,99.90
2023-05-16T01:12:46.614Z,99.90
2023-05-16T01:15:23.065Z,99.90
2023-05-16T01:18:25.671Z,99.90
2023-05-16T01:21:13.523Z,99.90
2023-05-16T01:24:10.241Z,99.90
2023-05-16T01:26:37.826Z,99.90
2023-05-16T01:29:07.528Z,99.90
2023-05-16T01:31:35.886Z,99.90
2023-05-16T01:34:03.114Z,99.90
2023-05-16T01:36:48.709Z,99.90
2023-05-16T01:39:30.477Z,99.90
2023-05-16T01:42:09.136Z,99.90
2023-05-16T01:44:56.981Z,99.90
2023-05-16T01:47:27.014Z,99.90
2023-05-16T01:50:03.843Z,99.90
2023-05-16T01:52:58.894Z,99.90
2023-05-16T01:55:55.687Z,99.90
2023-05-16T01:58:29.539Z,99.90
2023-05-16T02:01:04.329Z,99.90
2023-05-16T02:03:32.309Z,99.90
2023-05-16T02:05:59.874Z,99.90
2023-05-16T02:08:28.806Z,99.90
2023-05-16T02:10:55.938Z,99.90
2023-05-16T02:13:23.084Z,99.90
2023-05-16T02:15:50.350Z,99.90
2023-05-16T02:18:18.646Z,99.90
2023-05-16T02:20:45.765Z,99.90
2023-05-16T02:23:12.850Z,99.90
2023-05-16T02:25:39.932Z,99.90
2023-05-16T02:28:11.353Z,99.90
2023-05-16T02:30:38.617Z,99.90
2023-05-16T02:33:06.187Z,99.90
2023-05-16T02:35:33.504Z,99.90
2023-05-16T02:38:00.585Z,99.90
2023-05-16T02:40:27.763Z,99.90
2023-05-16T02:42:54.885Z,99.90
2023-05-16T02:45:22.093Z,99.90
2023-05-16T02:47:51.156Z,99.90
2023-05-16T02:50:19.257Z,99.90
2023-05-16T02:52:47.232Z,99.90
2023-05-16T02:55:21.721Z,99.90
2023-05-16T02:57:50.606Z,99.90
2023-05-16T03:00:18.917Z,99.90
2023-05-16T03:02:46.918Z,99.90
2023-05-16T03:05:14.169Z,99.90
2023-05-16T03:07:41.406Z,99.90
2023-05-16T03:10:09.305Z,99.90
2023-05-16T03:12:36.448Z,99.90
2023-05-16T03:15:04.163Z,99.90
2023-05-16T03:17:31.800Z,99.90
2023-05-16T03:19:58.953Z,99.90
2023-05-16T03:22:26.009Z,99.90
2023-05-16T03:24:53.100Z,99.90
2023-05-16T03:27:20.371Z,99.90
2023-05-16T03:29:50.361Z,99.90
2023-05-16T03:32:17.519Z,99.90
2023-05-16T03:34:44.604Z,99.90
2023-05-16T03:37:11.732Z,99.90
2023-05-16T03:39:38.808Z,99.90
2023-05-16T03:42:06.023Z,99.90
2023-05-16T03:44:33.110Z,99.90
2023-05-16T03:47:00.238Z,99.90
2023-05-16T03:49:30.242Z,99.90
2023-05-16T03:51:57.701Z,99.90
2023-05-16T03:54:24.840Z,99.90
2023-05-16T03:56:52.080Z,99.90
2023-05-16T03:59:19.198Z,99.90
2023-05-16T04:01:46.459Z,99.90
2023-05-16T04:04:14.227Z,99.90
2023-05-16T04:06:41.289Z,99.90
2023-05-16T04:09:08.385Z,99.90
2023-05-16T04:11:36.388Z,99.90
2023-05-16T04:14:03.555Z,99.90
2023-05-16T04:16:30.769Z,99.90
2023-05-16T04:18:59.339Z,99.90
2023-05-16T04:21:26.523Z,99.90
2023-05-16T04:23:54.683Z,99.90
2023-05-16T04:26:24.876Z,99.90
2023-05-16T04:28:52.004Z,99.90
2023-05-16T04:31:19.122Z,99.90
2023-05-16T04:33:46.849Z,99.90
2023-05-16T04:36:14.318Z,99.90
2023-05-16T04:38:41.908Z,99.90
2023-05-16T04:41:09.006Z,99.90
2023-05-16T04:43:36.503Z,99.90
2023-05-16T04:46:04.121Z,99.90
2023-05-16T04:48:32.112Z,99.90
2023-05-16T04:50:59.284Z,99.90
2023-05-16T04:53:26.706Z,99.90
2023-05-16T04:55:54.589Z,99.90
2023-05-16T04:58:24.088Z,99.90
2023-05-16T05:00:55.830Z,99.90
2023-05-16T05:03:22.901Z,99.90
2023-05-16T05:05:50.371Z,99.90
2023-05-16T05:08:18.957Z,99.90
2023-05-16T05:10:46.098Z,99.90
2023-05-16T05:13:13.124Z,99.90
2023-05-16T05:15:40.625Z,99.90
2023-05-16T05:18:07.900Z,99.90
2023-05-16T05:20:35.489Z,99.90
2023-05-16T05:23:02.690Z,99.90
2023-05-16T05:25:29.996Z,99.90
2023-05-16T05:27:57.252Z,99.90
2023-05-16T05:30:24.942Z,99.90
2023-05-16T05:32:53.353Z,99.90
2023-05-16T05:35:21.051Z,99.90
2023-05-16T05:37:51.017Z,99.90
2023-05-16T05:40:20.797Z,99.90
2023-05-16T05:42:48.054Z,99.90
2023-05-16T05:45:16.150Z,99.90
2023-05-16T05:47:44.539Z,99.90
2023-05-16T05:50:15.847Z,99.90
2023-05-16T05:52:45.399Z,99.90
2023-05-16T05:55:12.488Z,99.90
2023-05-16T05:57:40.022Z,99.90
2023-05-16T06:00:07.923Z,99.90
2023-05-16T06:02:39.505Z,99.90
2023-05-16T06:05:07.466Z,99.90
2023-05-16T06:07:35.015Z,99.90
2023-05-16T06:10:05.161Z,99.90
2023-05-16T06:12:32.996Z,99.90
2023-05-16T06:15:00.532Z,99.90
2023-05-16T06:17:27.931Z,99.90
2023-05-16T06:19:56.425Z,99.90
2023-05-16T06:22:23.917Z,99.90
2023-05-16T06:24:57.171Z,99.90
2023-05-16T06:27:25.550Z,99.90
2023-05-16T06:30:01.102Z,99.90
2023-05-16T06:32:34.643Z,99.90
2023-05-16T06:35:01.833Z,99.90
2023-05-16T06:37:29.071Z,99.90
2023-05-16T06:39:56.311Z,99.90
2023-05-16T06:42:23.596Z,99.90
2023-05-16T06:44:51.246Z,99.90
2023-05-16T06:47:18.481Z,99.90
2023-05-16T06:49:45.588Z,99.90
2023-05-16T06:52:12.975Z,99.90
2023-05-16T06:54:40.400Z,99.90
2023-05-16T06:57:29.290Z,99.90
2023-05-16T06:59:57.823Z,99.90
2023-05-16T07:02:26.232Z,99.90
2023-05-16T07:04:53.890Z,99.90
2023-05-16T07:07:23.135Z,99.90
2023-05-16T07:09:50.390Z,99.90
2023-05-16T07:12:22.817Z,99.90
2023-05-16T07:14:50.020Z,99.90
2023-05-16T07:17:18.561Z,99.90
2023-05-16T07:19:46.081Z,99.90
2023-05-16T07:22:16.363Z,99.90
2023-05-16T07:24:46.958Z,99.90
2023-05-16T07:27:14.173Z,99.90
2023-05-16T07:29:43.715Z,99.90
2023-05-16T07:32:11.141Z,99.90
2023-05-16T07:34:38.671Z,99.90
2023-05-16T07:37:07.685Z,99.90
2023-05-16T07:39:34.826Z,99.90
2023-05-16T07:42:02.023Z,99.90
2023-05-16T07:44:29.422Z,99.90
2023-05-16T07:46:56.625Z,99.90
2023-05-16T07:49:24.092Z,99.90
2023-05-16T07:51:51.278Z,99.90
2023-05-16T07:54:18.537Z,99.90
2023-05-16T07:56:45.856Z,99.90
2023-05-16T07:59:14.538Z,99.90
2023-05-16T08:01:41.846Z,99.90
2023-05-16T08:04:10.106Z,99.90
2023-05-16T08:06:37.584Z,99.90
2023-05-16T08:09:04.808Z,99.90
2023-05-16T08:11:31.951Z,99.90
2023-05-16T08:14:01.186Z,99.90
2023-05-16T08:16:28.404Z,99.90
2023-05-16T08:18:56.413Z,99.90
2023-05-16T08:21:23.715Z,99.90
2023-05-16T08:23:51.219Z,99.90
2023-05-16T08:26:18.409Z,99.90
2023-05-16T08:28:45.831Z,99.90
2023-05-16T08:31:19.114Z,99.90
2023-05-16T08:33:50.348Z,99.90
2023-05-16T08:36:19.946Z,99.90
2023-05-16T08:38:50.111Z,99.90
2023-05-16T08:41:17.485Z,99.90
2023-05-16T08:43:47.044Z,99.90
2023-05-16T08:46:17.169Z,99.90
2023-05-16T08:48:47.437Z,99.90
2023-05-16T08:51:17.725Z,99.90
2023-05-16T08:53:57.879Z,99.90
2023-05-16T08:56:28.460Z,99.90
2023-05-16T08:58:57.974Z,99.90
2023-05-16T09:01:28.268Z,99.90
2023-05-16T09:03:56.544Z,99.90
2023-05-16T09:06:24.801Z,99.90
2023-05-16T09:08:57.614Z,99.90
2023-05-16T09:11:25.000Z,99.90
2023-05-16T09:13:52.385Z,99.90
2023-05-16T09:16:21.498Z,99.90
2023-05-16T09:18:59.105Z,99.90
2023-05-16T09:21:32.388Z,99.90
2023-05-16T09:24:10.228Z,99.90
2023-05-16T09:26:39.332Z,99.90
2023-05-16T09:29:17.233Z,99.90
2023-05-16T09:31:44.467Z,99.40
2023-05-16T09:34:13.213Z,99.50
2023-05-16T09:36:42.237Z,98.30
2023-05-16T09:39:12.235Z,98.40
2023-05-16T09:41:39.623Z,98.30
2023-05-16T09:44:07.245Z,97.30
2023-05-16T09:46:39.463Z,96.80
2023-05-16T09:49:06.870Z,95.90
2023-05-16T09:51:34.602Z,96.10
2023-05-16T09:54:01.917Z,95.70
2023-05-16T09:56:30.157Z,94.30
2023-05-16T09:58:57.402Z,94.90
2023-05-16T10:01:25.988Z,94.90
2023-05-16T10:03:53.527Z,95.00
2023-05-16T10:06:21.223Z,95.40
2023-05-16T10:08:49.392Z,94.50
2023-05-16T10:11:18.995Z,93.70
2023-05-16T10:13:53.032Z,93.40
2023-05-16T10:16:23.816Z,94.40
2023-05-16T10:18:55.266Z,95.30
2023-05-16T10:21:26.013Z,94.60
2023-05-16T10:23:56.574Z,93.90
2023-05-16T10:26:24.657Z,93.90
2023-05-16T10:28:57.182Z,94.20
2023-05-16T10:31:24.942Z,93.20
2023-05-16T10:33:53.871Z,93.00
2023-05-16T10:36:21.669Z,92.50
2023-05-16T10:38:51.458Z,91.70
2023-05-16T10:41:19.986Z,90.40
2023-05-16T10:43:58.880Z,88.90
2023-05-16T10:46:30.137Z,87.80
2023-05-16T10:48:58.921Z,85.00
2023-05-16T10:51:38.177Z,85.70
2023-05-16T10:54:10.256Z,87.00
2023-05-16T10:56:37.739Z,87.80
2023-05-16T10:59:05.358Z,85.30
2023-05-16T11:01:40.869Z,84.60
2023-05-16T11:04:11.065Z,84.20
2023-05-16T11:06:41.041Z,84.20
2023-05-16T11:09:11.027Z,82.90
2023-05-16T11:11:42.664Z,79.70
2023-05-16T11:14:22.403Z,76.80
2023-05-16T11:17:11.186Z,75.50
2023-05-16T11:19:59.447Z,76.50
2023-05-16T11:22:29.699Z,80.00
2023-05-16T11:25:07.659Z,82.70
2023-05-16T11:27:53.095Z,76.30
2023-05-16T11:30:22.745Z,73.30
2023-05-16T11:32:50.658Z,71.30
2023-05-16T11:35:21.456Z,69.00
2023-05-16T11:37:48.892Z,70.50
2023-05-16T11:40:17.275Z,69.00
2023-05-16T11:42:47.907Z,68.60
2023-05-16T11:45:25.291Z,67.30
2023-05-16T11:48:01.312Z,67.30
2023-05-16T11:50:31.809Z,66.20
2023-05-16T11:53:00.398Z,65.50
2023-05-16T11:58:06.719Z,66.10
2023-05-16T12:00:36.501Z,62.50
2023-05-16T12:03:05.847Z,62.40
2023-05-16T12:05:36.653Z,60.10
2023-05-16T12:08:07.184Z,59.00
2023-05-16T12:10:35.175Z,57.50
2023-05-16T12:13:03.542Z,65.90
2023-05-16T12:15:31.327Z,68.50
2023-05-16T12:17:59.160Z,67.90
2023-05-16T12:20:26.597Z,69.60
2023-05-16T12:22:53.969Z,70.90
2023-05-16T12:25:42.031Z,70.00
2023-05-16T12:28:10.169Z,71.10
2023-05-16T12:30:44.384Z,72.00
2023-05-16T12:33:15.618Z,73.70
2023-05-16T12:35:45.732Z,75.70
2023-05-16T12:38:15.256Z,76.70
2023-05-16T12:40:44.115Z,75.70
2023-05-16T12:43:16.733Z,71.00
2023-05-16T12:45:54.779Z,70.50
2023-05-16T12:48:23.485Z,72.90
2023-05-16T12:50:51.099Z,72.90
2023-05-16T12:53:19.454Z,72.30
2023-05-16T12:55:46.879Z,72.70
2023-05-16T12:58:14.172Z,68.40
2023-05-16T13:00:41.602Z,67.10
2023-05-16T13:03:09.025Z,66.10
2023-05-16T13:05:36.715Z,67.60
2023-05-16T13:08:04.413Z,69.00
2023-05-16T13:10:31.613Z,71.50
2023-05-16T13:13:00.109Z,69.30
2023-05-16T13:15:28.470Z,67.70
2023-05-16T13:17:56.183Z,66.90
2023-05-16T13:20:23.570Z,64.40
2023-05-16T13:22:50.772Z,62.40
2023-05-16T13:25:17.998Z,59.30
2023-05-16T13:27:46.300Z,59.70
2023-05-16T13:30:13.872Z,62.50
2023-05-16T13:32:42.531Z,65.90
2023-05-16T13:35:10.444Z,70.10
2023-05-16T13:37:37.773Z,72.20
2023-05-16T13:40:08.650Z,74.40
2023-05-16T13:42:37.146Z,74.60
2023-05-16T13:45:05.465Z,76.60
2023-05-16T13:47:35.200Z,78.50
2023-05-16T13:50:06.295Z,79.90
2023-05-16T13:52:34.283Z,81.50
2023-05-16T13:55:03.471Z,79.40
2023-05-16T13:57:31.198Z,80.40
2023-05-16T14:00:24.998Z,80.70
2023-05-16T14:02:46.127Z,81.10
2023-05-16T14:05:13.407Z,80.60
2023-05-16T14:07:41.422Z,81.90
2023-05-16T14:10:09.435Z,83.80
2023-05-16T14:12:37.312Z,84.10
2023-05-16T14:15:05.549Z,85.10
2023-05-16T14:17:32.809Z,82.20
2023-05-16T14:20:00.092Z,81.50
2023-05-16T14:22:28.532Z,82.80
2023-05-16T14:24:55.962Z,83.00
2023-05-16T14:27:23.113Z,82.70
2023-05-16T14:29:50.396Z,83.40
2023-05-16T14:32:17.665Z,83.40
2023-05-16T14:34:44.918Z,80.40
2023-05-16T14:37:12.175Z,82.50
2023-05-16T14:39:39.393Z,83.90
2023-05-16T14:42:08.606Z,82.40
2023-05-16T14:44:36.133Z,82.30
2023-05-16T14:47:04.379Z,82.20
2023-05-16T14:49:32.389Z,82.10
2023-05-16T14:51:59.584Z,82.40
2023-05-16T14:54:26.680Z,81.60
2023-05-16T14:56:53.797Z,80.30
2023-05-16T14:59:21.280Z,80.20
2023-05-16T15:01:48.482Z,79.60
2023-05-16T15:04:15.704Z,79.40
2023-05-16T15:06:42.883Z,77.80
2023-05-16T15:09:10.373Z,79.10
2023-05-16T15:11:37.570Z,80.10
2023-05-16T15:14:04.803Z,81.30
2023-05-16T15:16:31.967Z,82.10
2023-05-16T15:18:59.143Z,81.50
2023-05-16T15:21:27.164Z,82.00
2023-05-16T15:23:55.561Z,83.90
2023-05-16T15:26:22.880Z,84.60
2023-05-16T15:28:50.336Z,84.70
2023-05-16T15:31:17.624Z,84.70
2023-05-16T15:33:48.137Z,84.40
2023-05-16T15:36:15.698Z,81.30
2023-05-16T15:38:45.528Z,81.70
2023-05-16T15:41:31.501Z,82.70
2023-05-16T15:44:02.215Z,83.80
2023-05-16T15:46:32.959Z,85.10
2023-05-16T15:49:00.806Z,85.30
2023-05-16T15:51:28.020Z,83.60
2023-05-16T15:53:55.149Z,84.20
2023-05-16T15:56:22.484Z,84.50
2023-05-16T15:58:49.674Z,84.60
2023-05-16T16:01:16.961Z,83.60
2023-05-16T16:03:44.258Z,80.70
2023-05-16T16:06:11.586Z,81.10
2023-05-16T16:08:38.775Z,83.10
2023-05-16T16:11:06.019Z,85.90
2023-05-16T16:13:33.631Z,86.10
2023-05-16T16:16:00.856Z,85.50
2023-05-16T16:18:28.177Z,84.70
2023-05-16T16:20:55.858Z,86.10
2023-05-16T16:23:23.070Z,87.70
2023-05-16T16:25:50.349Z,86.90
2023-05-16T16:28:17.533Z,88.10
2023-05-16T16:30:47.259Z,87.50
2023-05-16T16:33:14.474Z,86.20
2023-05-16T16:35:41.678Z,85.80
2023-05-16T16:38:09.226Z,86.10
2023-05-16T16:40:36.385Z,86.70
2023-05-16T16:43:06.014Z,87.10
2023-05-16T16:45:33.720Z,87.90
2023-05-16T16:48:01.044Z,87.30
2023-05-16T16:50:28.295Z,88.20
2023-05-16T16:52:55.773Z,88.30
2023-05-16T16:55:22.921Z,88.00
2023-05-16T16:57:50.138Z,89.00
2023-05-16T17:00:18.542Z,85.70
2023-05-16T17:02:45.838Z,86.10
2023-05-16T17:05:13.598Z,82.50
2023-05-16T17:07:40.872Z,81.10
2023-05-16T17:10:09.382Z,80.90
2023-05-16T17:12:39.242Z,82.40
2023-05-16T17:15:07.434Z,83.70
2023-05-16T17:17:34.655Z,85.00
2023-05-16T17:20:05.770Z,85.90
2023-05-16T17:22:33.716Z,86.30
2023-05-16T17:25:00.828Z,86.30
2023-05-16T17:27:27.997Z,86.80
2023-05-16T17:29:55.322Z,88.20
2023-05-16T17:32:22.508Z,89.20
2023-05-16T17:34:50.118Z,90.20
2023-05-16T17:37:17.410Z,90.90
2023-05-16T17:39:44.597Z,91.40
2023-05-16T17:42:11.832Z,92.00
2023-05-16T17:44:41.039Z,92.60
2023-05-16T17:47:08.217Z,92.90
2023-05-16T17:49:35.438Z,93.00
2023-05-16T17:52:02.761Z,93.40
2023-05-16T17:54:32.054Z,93.80
2023-05-16T17:57:00.535Z,94.10
2023-05-16T17:59:27.703Z,94.70
2023-05-16T18:01:57.341Z,95.30
2023-05-16T18:04:25.500Z,95.40
2023-05-16T18:06:52.886Z,96.10
2023-05-16T18:09:21.633Z,96.60
2023-05-16T18:11:49.098Z,97.00
2023-05-16T18:14:17.130Z,97.50
2023-05-16T18:16:44.818Z,97.80
2023-05-16T18:19:12.684Z,98.00
2023-05-16T18:21:40.269Z,98.40
2023-05-16T18:24:12.908Z,98.80
2023-05-16T18:26:40.216Z,99.50
2023-05-16T18:29:07.893Z,99.90
2023-05-16T18:31:35.538Z,99.90
2023-05-16T18:34:02.854Z,99.90
2023-05-16T18:36:30.229Z,99.90
2023-05-16T18:38:57.400Z,99.90
2023-05-16T18:41:24.537Z,99.90
2023-05-16T18:43:51.695Z,99.90
2023-05-16T18:46:18.890Z,99.90
2023-05-16T18:48:46.097Z,99.90
2023-05-16T18:51:13.511Z,99.90
2023-05-16T18:53:40.721Z,99.90
2023-05-16T18:56:07.957Z,99.90
2023-05-16T18:58:35.334Z,99.90
2023-05-16T19:01:03.765Z,99.90
2023-05-16T19:03:31.038Z,99.90
2023-05-16T19:05:58.543Z,99.90
2023-05-16T19:08:31.271Z,99.90
2023-05-16T19:11:04.194Z,99.90
2023-05-16T19:13:32.321Z,99.90
2023-05-16T19:15:59.530Z,99.90
2023-05-16T19:18:27.172Z,99.90
2023-05-16T19:20:54.501Z,99.90
2023-05-16T19:23:21.702Z,99.90
2023-05-16T19:25:49.127Z,99.90
2023-05-16T19:28:18.900Z,99.90
2023-05-16T19:30:46.082Z,99.90
2023-05-16T19:33:13.408Z,99.90
2023-05-16T19:35:40.775Z,99.90
2023-05-16T19:38:07.940Z,99.90
2023-05-16T19:40:35.177Z,99.90
2023-05-16T19:43:02.365Z,99.90
2023-05-16T19:45:29.884Z,99.90
2023-05-16T19:47:57.446Z,99.90
2023-05-16T19:50:24.748Z,99.90
2023-05-16T19:52:52.125Z,99.90
2023-05-16T19:55:19.348Z,99.90
2023-05-16T19:57:46.717Z,99.90
2023-05-16T20:00:14.743Z,99.90
2023-05-16T20:02:43.186Z,99.90
2023-05-16T20:05:11.089Z,99.90
2023-05-16T20:07:40.484Z,99.90
2023-05-16T20:10:09.471Z,99.90
2023-05-16T20:12:36.719Z,99.90
2023-05-16T20:15:08.182Z,99.90
2023-05-16T20:17:35.722Z,99.90
2023-05-16T20:20:04.330Z,99.90
2023-05-16T20:22:31.573Z,99.90
2023-05-16T20:24:58.838Z,99.90
2023-05-16T20:27:26.014Z,99.90
2023-05-16T20:29:54.312Z,99.90
2023-05-16T20:32:21.728Z,99.90
2023-05-16T20:34:49.080Z,99.90
2023-05-16T20:37:16.281Z,99.90
2023-05-16T20:39:43.512Z,99.90
2023-05-16T20:42:11.108Z,99.90
2023-05-16T20:44:39.246Z,99.90
2023-05-16T20:47:07.536Z,99.90
2023-05-16T20:49:37.368Z,99.90
2023-05-16T20:52:05.621Z,99.90
2023-05-16T20:54:33.312Z,99.90
2023-05-16T20:57:00.846Z,99.90
2023-05-16T20:59:28.306Z,99.90
2023-05-16T21:01:57.382Z,99.90
2023-05-16T21:04:24.785Z,99.90
2023-05-16T21:06:52.113Z,99.90
2023-05-16T21:09:19.343Z,99.90
2023-05-16T21:11:46.680Z,99.90
2023-05-16T21:14:14.052Z,99.90
2023-05-16T21:16:41.736Z,99.90
2023-05-16T21:19:09.131Z,99.90
2023-05-16T21:21:36.469Z,99.90
2023-05-16T21:24:04.343Z,99.90
2023-05-16T21:26:31.641Z,99.90
2023-05-16T21:28:58.845Z,99.90
2023-05-16T21:31:26.285Z,99.90
2023-05-16T21:33:53.738Z,99.90
2023-05-16T21:36:21.259Z,99.90
2023-05-16T21:38:48.956Z,99.90
2023-05-16T21:41:18.098Z,99.90
2023-05-16T21:43:45.421Z,99.90
2023-05-16T21:46:12.617Z,99.90
2023-05-16T21:48:40.194Z,99.90
2023-05-16T21:51:07.473Z,99.90
2023-05-16T21:53:34.618Z,99.90
2023-05-16T21:56:01.763Z,99.90
2023-05-16T21:58:29.000Z,99.90
2023-05-16T22:00:56.155Z,99.90
2023-05-16T22:03:24.184Z,99.90
2023-05-16T22:05:51.483Z,99.90
2023-05-16T22:08:18.696Z,99.90
2023-05-16T22:10:45.872Z,99.90
2023-05-16T22:13:13.091Z,99.90
2023-05-16T22:15:42.433Z,99.90
2023-05-16T22:18:11.759Z,99.90
2023-05-16T22:20:39.079Z,99.90
2023-05-16T22:23:06.228Z,99.90
2023-05-16T22:25:33.385Z,99.90
2023-05-16T22:28:00.572Z,99.90
2023-05-16T22:30:27.701Z,99.90
2023-05-16T22:32:56.995Z,99.90
2023-05-16T22:35:25.359Z,99.90
2023-05-16T22:37:52.595Z,99.90
2023-05-16T22:40:19.965Z,99.90
2023-05-16T22:42:47.158Z,99.90
2023-05-16T22:45:14.308Z,99.90
2023-05-16T22:47:41.695Z,99.90
2023-05-16T22:50:09.929Z,99.90
2023-05-16T22:52:41.853Z,99.90
2023-05-16T22:55:09.525Z,99.90
2023-05-16T22:57:37.375Z,99.90
2023-05-16T23:00:05.315Z,99.90
2023-05-16T23:02:32.603Z,99.90
2023-05-16T23:04:59.885Z,99.90
2023-05-16T23:07:28.845Z,99.90
2023-05-16T23:09:56.082Z,99.90
2023-05-16T23:12:25.205Z,99.90
2023-05-16T23:14:52.715Z,99.90
2023-05-16T23:17:19.903Z,99.90
2023-05-16T23:19:47.163Z,99.90
2023-05-16T23:22:14.468Z,99.90
2023-05-16T23:24:41.652Z,99.90
2023-05-16T23:27:08.811Z,99.90
2023-05-16T23:29:35.962Z,99.90
2023-05-16T23:32:03.121Z,99.90
2023-05-16T23:34:30.306Z,99.90
2023-05-16T23:36:57.417Z,99.90
2023-05-16T23:39:25.245Z,99.90
2023-05-16T23:41:52.454Z,99.90
2023-05-16T23:44:19.671Z,99.90
2023-05-16T23:46:46.789Z,99.90
2023-05-16T23:49:13.919Z,99.90
2023-05-16T23:51:56.248Z,99.90
2023-05-16T23:54:24.521Z,99.90
2023-05-16T23:56:51.672Z,99.90
2023-05-16T23:59:21.480Z,99.90
